»·PEaware :: N149CD KCRQ-KRAL

N149CD :: KCRQ-KRAL

FLIGHT INFORMATION

Flight Status: Arrived
Operator: Privately registered:
United States
More flights under this callsign
Pilot: Nathan E. (30132)
Aircraft: CESSNA 172 SKYHAWK
(C172)
More flights by this aircraft type
Origin: KCRQ McClellan-Palomar
United States
Destination: KRAL Riverside Mun
United States
More flights between these airports :: More routes between these airports
Route: OCN V23 DANAH V363 POXCU V8 PDZ
File this flight plan on PilotEdge
Remarks: TEC route SANP19
Altitude:
(Current/Filed)
6,000ft
Speed:
(Current/Filed)
110kts
Departed: 06-Sep-20 11:10 AM
Arrived: 06-Sep-20 11:53 AM
Distance/Time
Traveled:
50nm/0:43
Distance/Time
To Go:
Arrived

Flight Plot

Page will automatically refresh every two minutes.

Flight plan parsing failed; only flown route is shown


Map Options




Map Legend


Flown Route
Filed Route
Departure Airport
Arrival Airport
Navaid (VOR, NDB)
Fix

Horizontal Profiles

Position Reports

Time Latitude Longitude Heading Altitude Ground
Speed
06-Sep-20 10:56 33.126980 -117.278877 0 335ft 0kts
06-Sep-20 10:57 33.126979 -117.278876 167 335ft 0kts
06-Sep-20 10:58 33.126979 -117.278876 167 335ft 0kts
06-Sep-20 10:59 33.126979 -117.278876 167 335ft 0kts
06-Sep-20 11:00 33.126979 -117.278876 167 335ft 0kts
06-Sep-20 11:01 33.126979 -117.278876 167 335ft 0kts
06-Sep-20 11:02 33.126979 -117.278876 167 335ft 0kts
06-Sep-20 11:03 33.126979 -117.278876 167 335ft 0kts
06-Sep-20 11:04 33.126957 -117.278846 46 335ft 1kts
06-Sep-20 11:05 33.128448 -117.273792 79 335ft 18kts
06-Sep-20 11:06 33.128540 -117.272303 352 335ft 0kts
06-Sep-20 11:07 33.128540 -117.272303 352 335ft 0kts
06-Sep-20 11:08 33.129457 -117.272621 263 335ft 7kts
06-Sep-20 11:09 33.126481 -117.293583 260 768ft 75kts
06-Sep-20 11:10 33.124158 -117.319779 261 1539ft 80kts
06-Sep-20 11:11 33.121866 -117.346545 261 2273ft 81kts
06-Sep-20 11:12 33.119631 -117.373596 265 2966ft 82kts
06-Sep-20 11:13 33.138743 -117.385769 349 3624ft 86kts
06-Sep-20 11:14 33.162318 -117.392046 346 4256ft 87kts
06-Sep-20 11:15 33.186008 -117.399498 344 4851ft 88kts
06-Sep-20 11:16 33.209928 -117.407475 344 5417ft 89kts
06-Sep-20 11:17 33.234076 -117.415702 344 5954ft 91kts
06-Sep-20 11:18 33.257510 -117.438261 315 5991ft 115kts
06-Sep-20 11:19 33.280882 -117.464828 314 5990ft 116kts
06-Sep-20 11:20 33.304064 -117.491673 314 5990ft 116kts
06-Sep-20 11:21 33.327227 -117.518640 314 5990ft 116kts
06-Sep-20 11:22 33.350392 -117.545653 314 5990ft 116kts
06-Sep-20 11:23 33.373506 -117.572634 314 5990ft 116kts
06-Sep-20 11:24 33.396708 -117.599744 314 5990ft 116kts
06-Sep-20 11:25 33.419826 -117.626772 314 5990ft 116kts
06-Sep-20 11:26 33.442854 -117.653717 313 5990ft 115kts
06-Sep-20 11:27 33.465338 -117.680133 317 5989ft 110kts
06-Sep-20 11:28 33.490384 -117.698168 349 5990ft 107kts
06-Sep-20 11:29 33.519899 -117.704489 352 5990ft 108kts
06-Sep-20 11:30 33.549678 -117.709859 353 5990ft 108kts
06-Sep-20 11:31 33.579676 -117.714921 353 5990ft 109kts
06-Sep-20 11:32 33.609807 -117.719977 353 5991ft 109kts
06-Sep-20 11:33 33.640028 -117.725051 353 5995ft 109kts
06-Sep-20 11:34 33.670176 -117.730114 353 5999ft 109kts
06-Sep-20 11:35 33.699076 -117.741991 340 6001ft 110kts
06-Sep-20 11:36 33.727723 -117.755424 340 6003ft 110kts
06-Sep-20 11:37 33.756339 -117.768898 340 6003ft 110kts
06-Sep-20 11:38 33.785502 -117.780280 356 5983ft 110kts
06-Sep-20 11:39 33.815889 -117.781550 0 5983ft 109kts
06-Sep-20 11:40 33.845917 -117.780102 33 5981ft 108kts
06-Sep-20 11:41 33.861125 -117.749676 69 5988ft 108kts
06-Sep-20 11:42 33.870528 -117.715267 71 5994ft 108kts
06-Sep-20 11:44 33.879485 -117.680749 71 6001ft 108kts
06-Sep-20 11:45 33.888418 -117.646181 71 6008ft 108kts
06-Sep-20 11:46 33.897504 -117.610912 71 5732ft 115kts
06-Sep-20 11:47 33.908664 -117.574032 67 5032ft 119kts
06-Sep-20 11:48 33.919828 -117.536483 71 4030ft 119kts
06-Sep-20 11:49 33.929860 -117.498976 71 3027ft 117kts
06-Sep-20 11:50 33.938321 -117.461338 98 2020ft 118kts
06-Sep-20 11:51 33.931945 -117.425144 101 1826ft 106kts
06-Sep-20 11:52 33.948074 -117.422408 281 1162ft 79kts
06-Sep-20 11:53 33.951266 -117.439893 189 801ft 10kts
06-Sep-20 11:54 33.950516 -117.441009 271 793ft 14kts
06-Sep-20 11:55 33.950133 -117.441970 209 787ft 0kts

Navigation Log

Ident Type
Flight plan parsing failed, navigation log unavailable